Buechel, Kentucky
Current Conditions -  °F | °C
As of 2:53 PM on Thursday 23 Oct 2014 (Local Time) from KLOU Reporting Station
Clear Clear  
Wind Chill: 15°   Ceiling: Unl
Heat Index: 15°   Visibility: 8mi
Dew Point:   Wind: 3mph
Humidity: 51%   Direction: 120°ESE
Pressure: 30.18"   Gusts: NA
Location:  38.1869°N, 85.6523°W
Report Text: KLOU 231853Z 12003KT 8SM CLR 15/05 A3018 RMK AO2 SLP219 T01500050
Loading
Personal Weather Stations






























Interactive Weather Map
Tropical Storm Tracking
New forecast layout! Learn more

10-Day Weather Forecast

Advertisements
Track Severe Weather on mobile